createdAt,value
2022-12-16T00:01:14.328Z,45.67
2022-12-16T00:03:41.622Z,45.83
2022-12-16T00:06:09.271Z,52.17
2022-12-16T00:08:37.945Z,48.22
2022-12-16T00:11:05.294Z,45.60
2022-12-16T00:13:33.382Z,48.72
2022-12-16T00:16:00.795Z,51.72
2022-12-16T00:18:27.525Z,47.58
2022-12-16T00:20:55.460Z,49.72
2022-12-16T00:23:22.892Z,46.78
2022-12-16T00:25:49.709Z,49.80
2022-12-16T00:28:18.805Z,46.58
2022-12-16T00:30:45.612Z,50.47
2022-12-16T00:33:13.144Z,46.67
2022-12-16T00:35:44.533Z,52.92
2022-12-16T00:38:12.957Z,53.00
2022-12-16T00:40:39.686Z,50.53
2022-12-16T00:43:06.525Z,49.88
2022-12-16T00:45:33.251Z,57.03
2022-12-16T00:47:59.947Z,50.80
2022-12-16T00:50:26.800Z,55.20
2022-12-16T00:52:53.559Z,50.13
2022-12-16T00:55:21.729Z,47.72
2022-12-16T00:57:48.461Z,50.70
2022-12-16T01:00:16.762Z,47.30
2022-12-16T01:02:44.839Z,51.72
2022-12-16T01:05:12.989Z,53.50
2022-12-16T01:07:39.738Z,52.35
2022-12-16T01:10:07.474Z,49.13
2022-12-16T01:12:35.708Z,50.25
2022-12-16T01:15:03.420Z,56.63
2022-12-16T01:17:30.193Z,52.22
2022-12-16T01:19:56.821Z,49.22
2022-12-16T01:22:23.536Z,52.67
2022-12-16T01:24:50.331Z,48.25
2022-12-16T01:27:17.164Z,50.70
2022-12-16T01:29:43.791Z,52.65
2022-12-16T01:32:14.177Z,46.30
2022-12-16T01:34:41.213Z,46.78
2022-12-16T01:37:11.841Z,51.55
2022-12-16T01:39:38.908Z,45.70
2022-12-16T01:42:12.664Z,49.17
2022-12-16T01:44:39.404Z,50.60
2022-12-16T01:47:06.309Z,49.35
2022-12-16T01:49:37.399Z,51.40
2022-12-16T01:52:05.977Z,53.78
2022-12-16T01:54:37.058Z,52.83
2022-12-16T01:57:12.913Z,56.45
2022-12-16T01:59:40.377Z,48.05
2022-12-16T02:02:07.196Z,55.78
2022-12-16T02:04:34.043Z,53.75
2022-12-16T02:07:00.837Z,50.97
2022-12-16T02:09:27.491Z,50.38
2022-12-16T02:12:17.920Z,51.80
2022-12-16T02:14:56.690Z,49.30
2022-12-16T02:17:38.628Z,53.90
2022-12-16T02:20:14.054Z,53.38
2022-12-16T02:23:05.509Z,51.38
2022-12-16T02:25:32.142Z,51.70
2022-12-16T02:28:11.511Z,48.08
2022-12-16T02:30:56.974Z,46.42
2022-12-16T02:33:27.322Z,51.55
2022-12-16T02:35:59.298Z,51.70
2022-12-16T02:38:33.767Z,52.78
2022-12-16T02:41:00.378Z,54.35
2022-12-16T02:43:36.163Z,46.55
2022-12-16T02:46:03.725Z,55.83
2022-12-16T02:48:30.636Z,48.40
2022-12-16T02:50:57.413Z,49.03
2022-12-16T02:53:24.058Z,50.35
2022-12-16T02:56:20.744Z,46.00
2022-12-16T02:58:53.455Z,51.65
2022-12-16T03:01:33.969Z,52.38
2022-12-16T03:04:09.717Z,48.08
2022-12-16T03:06:37.093Z,51.78
2022-12-16T03:09:05.687Z,45.80
2022-12-16T03:11:32.437Z,48.15
2022-12-16T03:13:59.156Z,50.97
2022-12-16T03:16:31.312Z,48.40
2022-12-16T03:19:03.633Z,51.77
2022-12-16T03:21:33.209Z,48.10
2022-12-16T03:24:06.685Z,45.92
2022-12-16T03:26:35.693Z,47.90
2022-12-16T03:29:06.405Z,48.90
2022-12-16T03:31:41.136Z,48.30
2022-12-16T03:34:35.011Z,51.47
2022-12-16T03:37:08.373Z,47.28
2022-12-16T03:39:37.233Z,50.45
2022-12-16T03:42:04.895Z,47.13
2022-12-16T03:44:32.411Z,44.15
2022-12-16T03:46:59.191Z,45.35
2022-12-16T03:49:26.432Z,44.92
2022-12-16T03:51:54.811Z,39.30
2022-12-16T03:54:21.866Z,44.08
2022-12-16T03:56:48.559Z,42.22
2022-12-16T03:59:15.352Z,41.35
2022-12-16T04:01:42.147Z,41.53
2022-12-16T04:04:08.902Z,39.20
2022-12-16T04:06:35.632Z,40.72
2022-12-16T04:09:02.347Z,39.92
2022-12-16T04:11:47.568Z,40.08
2022-12-16T04:14:32.727Z,37.97
2022-12-16T04:17:17.889Z,40.53
2022-12-16T04:20:03.876Z,37.33
2022-12-16T04:22:59.319Z,42.20
2022-12-16T04:25:34.919Z,39.80
2022-12-16T04:28:01.954Z,38.45
2022-12-16T04:30:29.482Z,39.63
2022-12-16T04:33:22.193Z,44.17
2022-12-16T04:36:07.367Z,37.47
2022-12-16T04:38:52.847Z,42.05
2022-12-16T04:41:38.095Z,36.72
2022-12-16T04:44:23.538Z,37.75
2022-12-16T04:47:08.963Z,35.33
2022-12-16T04:49:54.778Z,38.85
2022-12-16T04:52:41.800Z,40.20
2022-12-16T04:55:27.562Z,35.78
2022-12-16T04:58:14.392Z,35.80
2022-12-16T05:01:00.440Z,32.75
2022-12-16T05:03:46.460Z,34.75
2022-12-16T05:06:32.032Z,32.58
2022-12-16T05:09:17.449Z,36.17
2022-12-16T05:12:02.734Z,36.75
2022-12-16T05:14:48.148Z,35.80
2022-12-16T05:17:33.315Z,33.00
2022-12-16T05:20:19.691Z,37.33
2022-12-16T05:23:04.848Z,34.90
2022-12-16T05:25:50.324Z,36.22
2022-12-16T05:28:35.529Z,35.53
2022-12-16T05:31:20.690Z,32.60
2022-12-16T05:34:05.938Z,32.03
2022-12-16T05:36:51.175Z,34.35
2022-12-16T05:39:36.506Z,35.72
2022-12-16T05:42:22.199Z,33.67
2022-12-16T05:45:07.298Z,35.92
2022-12-16T05:47:53.335Z,35.40
2022-12-16T05:50:38.728Z,38.60
2022-12-16T05:53:24.069Z,34.00
2022-12-16T05:56:09.262Z,34.50
2022-12-16T05:58:54.517Z,32.88
2022-12-16T06:01:40.039Z,35.35
2022-12-16T06:04:25.517Z,36.17
2022-12-16T06:07:10.801Z,35.38
2022-12-16T06:09:57.032Z,29.67
2022-12-16T06:12:42.909Z,35.97
2022-12-16T06:15:29.262Z,28.05
2022-12-16T06:18:14.521Z,28.70
2022-12-16T06:20:59.818Z,30.98
2022-12-16T06:23:44.958Z,33.08
2022-12-16T06:26:30.607Z,34.22
2022-12-16T06:29:16.010Z,26.65
2022-12-16T06:32:01.319Z,29.83
2022-12-16T06:34:46.642Z,30.63
2022-12-16T06:37:31.951Z,28.95
2022-12-16T06:40:17.500Z,30.35
2022-12-16T06:43:02.848Z,27.13
2022-12-16T06:45:48.545Z,31.60
2022-12-16T06:48:33.835Z,27.25
2022-12-16T06:51:19.358Z,31.17
2022-12-16T06:54:04.699Z,29.42
2022-12-16T06:56:49.989Z,27.95
2022-12-16T06:59:35.248Z,26.77
2022-12-16T07:02:20.610Z,29.40
2022-12-16T07:05:06.682Z,27.85
2022-12-16T07:07:52.421Z,28.08
2022-12-16T07:10:37.590Z,29.02
2022-12-16T07:13:22.957Z,26.70
2022-12-16T07:16:08.538Z,27.80
2022-12-16T07:18:53.933Z,27.30
2022-12-16T07:21:39.398Z,27.38
2022-12-16T07:24:25.223Z,26.25
2022-12-16T07:27:10.485Z,28.77
2022-12-16T07:29:55.854Z,38.00
2022-12-16T07:32:41.235Z,35.58
2022-12-16T07:35:26.669Z,36.42
2022-12-16T07:38:11.873Z,31.77
2022-12-16T07:40:57.269Z,30.23
2022-12-16T07:43:43.154Z,30.52
2022-12-16T07:46:28.697Z,30.38
2022-12-16T07:49:14.189Z,32.72
2022-12-16T07:52:10.111Z,38.17
2022-12-16T07:54:55.828Z,32.15
2022-12-16T07:57:41.451Z,28.77
2022-12-16T08:00:27.183Z,28.30
2022-12-16T08:03:13.352Z,27.23
2022-12-16T08:05:58.683Z,28.92
2022-12-16T08:08:44.116Z,30.95
2022-12-16T08:11:29.152Z,31.08
2022-12-16T08:14:14.623Z,26.98
2022-12-16T08:16:59.907Z,28.92
2022-12-16T08:19:45.555Z,29.85
2022-12-16T08:22:34.011Z,29.92
2022-12-16T08:25:19.214Z,27.13
2022-12-16T08:28:04.836Z,25.50
2022-12-16T08:30:50.255Z,25.45
2022-12-16T08:33:37.884Z,31.95
2022-12-16T08:36:24.092Z,25.30
2022-12-16T08:39:09.358Z,26.73
2022-12-16T08:41:54.817Z,27.00
2022-12-16T08:44:40.679Z,22.98
2022-12-16T08:47:25.925Z,24.50
2022-12-16T08:50:11.165Z,25.25
2022-12-16T08:52:56.430Z,26.67
2022-12-16T08:55:42.810Z,22.60
2022-12-16T08:58:28.075Z,24.13
2022-12-16T09:01:16.031Z,20.92
2022-12-16T09:04:05.040Z,22.85
2022-12-16T09:07:10.617Z,25.98
2022-12-16T09:09:57.678Z,32.00
2022-12-16T09:12:42.933Z,33.65
2022-12-16T09:15:28.879Z,29.42
2022-12-16T09:18:15.273Z,24.02
2022-12-16T09:21:00.574Z,25.83
2022-12-16T09:23:45.812Z,29.48
2022-12-16T09:26:31.732Z,27.08
2022-12-16T09:29:17.183Z,30.58
2022-12-16T09:32:03.080Z,24.42
2022-12-16T09:34:48.315Z,21.80
2022-12-16T09:37:33.782Z,20.10
2022-12-16T09:40:18.829Z,22.60
2022-12-16T09:43:16.479Z,19.13
2022-12-16T09:46:10.182Z,21.80
2022-12-16T09:49:01.893Z,18.63
2022-12-16T09:51:47.086Z,17.77
2022-12-16T09:54:34.796Z,16.58
2022-12-16T09:57:20.694Z,22.75
2022-12-16T10:00:11.631Z,25.92
2022-12-16T10:03:00.507Z,23.80
2022-12-16T10:05:55.530Z,18.50
2022-12-16T10:08:49.534Z,19.58
2022-12-16T10:11:41.511Z,17.88
2022-12-16T10:14:33.518Z,18.85
2022-12-16T10:17:32.045Z,17.33
2022-12-16T10:20:53.671Z,20.55
2022-12-16T10:23:49.568Z,19.55
2022-12-16T10:27:14.320Z,19.88
2022-12-16T10:30:02.044Z,18.92
2022-12-16T10:33:07.227Z,16.92
2022-12-16T10:35:52.482Z,18.08
2022-12-16T10:39:00.731Z,19.42
2022-12-16T10:41:48.527Z,16.20
2022-12-16T10:45:16.204Z,21.83
2022-12-16T10:48:01.415Z,17.20
2022-12-16T10:50:51.233Z,20.00
2022-12-16T10:53:46.682Z,21.17
2022-12-16T10:56:59.324Z,21.52
2022-12-16T10:59:53.743Z,20.65
2022-12-16T11:02:42.581Z,21.15
2022-12-16T11:05:48.377Z,21.27
2022-12-16T11:08:48.824Z,21.05
2022-12-16T11:11:43.933Z,18.67
2022-12-16T11:14:59.554Z,20.50
2022-12-16T11:17:52.700Z,18.88
2022-12-16T11:20:43.329Z,22.60
2022-12-16T11:23:37.930Z,19.95
2022-12-16T11:26:33.060Z,22.33
2022-12-16T11:29:34.413Z,19.75
2022-12-16T11:32:39.538Z,17.55
2022-12-16T11:35:30.241Z,22.02
2022-12-16T11:38:15.393Z,19.40
2022-12-16T11:41:00.755Z,20.42
2022-12-16T11:43:46.017Z,19.25
2022-12-16T11:46:35.249Z,19.70
2022-12-16T11:49:25.321Z,21.65
2022-12-16T11:52:35.738Z,19.02
2022-12-16T11:59:01.640Z,19.75
2022-12-16T12:01:55.589Z,19.95
2022-12-16T12:04:41.355Z,21.58
2022-12-16T12:07:45.292Z,22.20
2022-12-16T12:10:43.154Z,17.05
2022-12-16T12:14:06.379Z,20.50
2022-12-16T12:17:17.661Z,19.13
2022-12-16T12:20:15.216Z,20.15
2022-12-16T12:23:00.463Z,19.48
2022-12-16T12:26:09.317Z,19.80
2022-12-16T12:29:12.895Z,18.02
2022-12-16T12:32:00.976Z,18.83
2022-12-16T12:34:55.490Z,18.55
2022-12-16T12:38:01.580Z,17.42
2022-12-16T12:40:53.733Z,18.42
2022-12-16T12:44:00.886Z,19.13
2022-12-16T12:46:59.470Z,16.48
2022-12-16T12:49:57.705Z,21.08
2022-12-16T12:53:29.223Z,17.95
2022-12-16T12:56:37.160Z,17.58
2022-12-16T12:59:25.729Z,15.77
2022-12-16T13:02:11.140Z,15.52
2022-12-16T13:04:56.817Z,19.17
2022-12-16T13:07:42.607Z,18.88
2022-12-16T13:10:43.278Z,17.20
2022-12-16T13:13:34.931Z,18.77
2022-12-16T13:16:25.398Z,20.05
2022-12-16T13:19:48.125Z,17.63
2022-12-16T13:22:52.703Z,16.45
2022-12-16T13:25:50.400Z,18.92
2022-12-16T13:28:43.191Z,17.83
2022-12-16T13:31:28.452Z,18.70
2022-12-16T13:34:14.240Z,16.92
2022-12-16T13:36:59.571Z,18.50
2022-12-16T13:39:49.034Z,19.85
2022-12-16T13:43:07.789Z,20.00
2022-12-16T13:46:14.621Z,17.67
2022-12-16T13:49:01.129Z,18.25
2022-12-16T13:51:56.442Z,19.80
2022-12-16T13:54:59.545Z,16.83
2022-12-16T13:57:44.922Z,15.48
2022-12-16T14:00:41.183Z,22.33
2022-12-16T14:04:06.829Z,18.75
2022-12-16T14:06:54.019Z,20.10
2022-12-16T14:09:51.237Z,19.85
2022-12-16T14:13:02.498Z,18.90
2022-12-16T14:16:17.618Z,21.85
2022-12-16T14:19:24.482Z,21.83
2022-12-16T14:22:23.876Z,20.42
2022-12-16T14:25:09.228Z,23.15
2022-12-16T14:27:54.847Z,23.15
2022-12-16T14:30:43.283Z,23.58
2022-12-16T14:33:45.878Z,20.10
2022-12-16T14:36:45.776Z,23.60
2022-12-16T14:39:34.805Z,20.48
2022-12-16T14:42:21.050Z,22.23
2022-12-16T14:45:07.284Z,24.50
2022-12-16T14:47:52.981Z,21.50
2022-12-16T14:50:45.868Z,22.67
2022-12-16T14:53:41.566Z,19.13
2022-12-16T14:56:38.854Z,20.95
2022-12-16T14:59:35.617Z,19.40
2022-12-16T15:02:48.842Z,20.35
2022-12-16T15:05:34.529Z,23.23
2022-12-16T15:08:20.168Z,18.85
2022-12-16T15:11:05.738Z,20.60
2022-12-16T15:13:52.566Z,18.58
2022-12-16T15:16:40.354Z,19.70
2022-12-16T15:19:26.112Z,17.85
2022-12-16T15:22:11.610Z,19.00
2022-12-16T15:24:57.490Z,17.98
2022-12-16T15:27:45.597Z,17.42
2022-12-16T15:30:53.868Z,17.30
2022-12-16T15:33:43.324Z,21.58
2022-12-16T15:36:44.159Z,22.08
2022-12-16T15:39:43.468Z,21.15
2022-12-16T15:42:40.120Z,26.23
2022-12-16T15:45:53.526Z,20.98
2022-12-16T15:48:46.227Z,22.42
2022-12-16T15:51:50.226Z,24.30
2022-12-16T15:54:39.615Z,23.98
2022-12-16T15:57:44.174Z,20.55
2022-12-16T16:00:48.719Z,22.33
2022-12-16T16:03:40.531Z,19.95
2022-12-16T16:06:35.179Z,21.27
2022-12-16T16:09:27.202Z,20.88
2022-12-16T16:12:12.580Z,21.33
2022-12-16T16:14:57.945Z,20.98
2022-12-16T16:17:43.152Z,23.70
2022-12-16T16:20:33.119Z,28.35
2022-12-16T16:23:18.749Z,28.13
2022-12-16T16:26:05.502Z,30.13
2022-12-16T16:28:51.364Z,28.67
2022-12-16T16:31:37.022Z,29.13
2022-12-16T16:34:22.716Z,25.50
2022-12-16T16:37:10.164Z,20.92
2022-12-16T16:39:56.102Z,24.80
2022-12-16T16:42:42.263Z,23.27
2022-12-16T16:45:34.060Z,23.73
2022-12-16T16:48:33.751Z,23.13
2022-12-16T16:51:20.640Z,26.00
2022-12-16T16:54:06.125Z,22.55
2022-12-16T16:56:55.178Z,23.98
2022-12-16T16:59:42.003Z,25.30
2022-12-16T17:02:51.775Z,31.25
2022-12-16T17:05:38.552Z,25.35
2022-12-16T17:08:24.387Z,26.27
2022-12-16T17:11:10.346Z,25.75
2022-12-16T17:13:57.820Z,28.83
2022-12-16T17:16:47.053Z,27.55
2022-12-16T17:19:32.568Z,27.00
2022-12-16T17:22:21.078Z,28.75
2022-12-16T17:25:07.235Z,28.13
2022-12-16T17:27:52.992Z,28.67
2022-12-16T17:30:47.314Z,29.65
2022-12-16T17:33:35.095Z,27.40
2022-12-16T17:36:21.388Z,31.33
2022-12-16T17:39:07.258Z,25.73
2022-12-16T17:41:53.134Z,28.08
2022-12-16T17:44:38.722Z,27.90
2022-12-16T17:47:25.088Z,30.17
2022-12-16T17:50:10.449Z,28.23
2022-12-16T17:52:55.879Z,26.95
2022-12-16T17:55:41.286Z,30.35
2022-12-16T17:58:28.784Z,32.47
2022-12-16T18:01:24.367Z,34.10
2022-12-16T18:04:10.608Z,31.88
2022-12-16T18:06:56.292Z,28.02
2022-12-16T18:09:41.937Z,32.55
2022-12-16T18:12:27.409Z,25.73
2022-12-16T18:15:12.813Z,31.25
2022-12-16T18:17:58.289Z,24.88
2022-12-16T18:20:44.282Z,27.60
2022-12-16T18:23:29.471Z,27.88
2022-12-16T18:26:26.105Z,24.45
2022-12-16T18:29:11.961Z,25.58
2022-12-16T18:31:57.562Z,30.42
2022-12-16T18:34:44.720Z,28.02
2022-12-16T18:37:31.314Z,26.92
2022-12-16T18:40:17.336Z,26.17
2022-12-16T18:43:02.981Z,26.50
2022-12-16T18:45:48.695Z,27.08
2022-12-16T18:48:34.295Z,25.38
2022-12-16T18:51:19.936Z,29.88
2022-12-16T18:54:09.891Z,27.27
2022-12-16T18:56:55.493Z,27.05
2022-12-16T18:59:41.474Z,25.35
2022-12-16T19:02:28.338Z,28.50
2022-12-16T19:05:14.684Z,24.88
2022-12-16T19:08:00.241Z,24.48
2022-12-16T19:10:45.494Z,23.00
2022-12-16T19:13:32.217Z,27.25
2022-12-16T19:16:17.678Z,26.83
2022-12-16T19:19:03.277Z,25.85
2022-12-16T19:21:52.357Z,24.20
2022-12-16T19:24:42.025Z,25.40
2022-12-16T19:27:27.355Z,25.50
2022-12-16T19:30:13.072Z,25.40
2022-12-16T19:32:58.609Z,24.48
2022-12-16T19:35:44.105Z,27.98
2022-12-16T19:38:33.100Z,28.63
2022-12-16T19:41:18.471Z,23.83
2022-12-16T19:44:06.563Z,25.42
2022-12-16T19:46:56.015Z,28.77
2022-12-16T19:52:47.380Z,23.52
2022-12-16T19:55:32.874Z,25.85
2022-12-16T19:58:19.326Z,27.73
2022-12-16T20:01:04.674Z,25.13
2022-12-16T20:03:50.638Z,27.38
2022-12-16T20:06:37.392Z,25.70
2022-12-16T20:09:22.722Z,24.85
2022-12-16T20:12:08.395Z,25.92
2022-12-16T20:14:56.480Z,24.92
2022-12-16T20:17:41.958Z,24.88
2022-12-16T20:20:28.986Z,25.27
2022-12-16T20:23:14.595Z,26.77
2022-12-16T20:26:13.263Z,28.42
2022-12-16T20:28:59.864Z,28.00
2022-12-16T20:31:45.560Z,27.50
2022-12-16T20:34:31.053Z,33.40
2022-12-16T20:37:16.650Z,30.80
2022-12-16T20:40:01.891Z,26.88
2022-12-16T20:42:51.653Z,28.13
2022-12-16T20:45:38.979Z,25.52
2022-12-16T20:48:24.633Z,25.75
2022-12-16T20:51:24.355Z,23.10
2022-12-16T20:54:11.757Z,28.25
2022-12-16T20:56:57.186Z,27.13
2022-12-16T20:59:42.385Z,28.95
2022-12-16T21:02:33.535Z,27.23
2022-12-16T21:05:21.053Z,26.45
2022-12-16T21:08:06.346Z,26.45
2022-12-16T21:10:51.799Z,26.48
2022-12-16T21:13:38.206Z,26.83
2022-12-16T21:14:28.519Z,31.80
2022-12-16T21:16:25.134Z,31.80
2022-12-16T21:19:10.439Z,26.95
2022-12-16T21:21:56.646Z,25.23
2022-12-16T21:24:41.920Z,23.13
2022-12-16T21:27:27.287Z,24.27
2022-12-16T21:30:12.704Z,28.70
2022-12-16T21:32:58.218Z,28.58
2022-12-16T21:35:56.093Z,24.83
2022-12-16T21:38:41.953Z,26.30
2022-12-16T21:41:27.887Z,26.20
2022-12-16T21:44:13.079Z,25.95
2022-12-16T21:46:58.742Z,26.98
2022-12-16T21:49:44.587Z,25.77
2022-12-16T21:52:30.342Z,26.67
2022-12-16T21:55:15.624Z,25.33
2022-12-16T21:58:02.138Z,28.95
2022-12-16T22:00:47.828Z,28.33
2022-12-16T22:03:33.614Z,28.92
2022-12-16T22:06:19.146Z,29.05
2022-12-16T22:09:04.559Z,26.48
2022-12-16T22:11:49.852Z,30.38
2022-12-16T22:14:35.160Z,27.92
2022-12-16T22:17:20.514Z,30.02
2022-12-16T22:20:06.219Z,29.27
2022-12-16T22:22:51.583Z,31.35
2022-12-16T22:25:36.913Z,32.33
2022-12-16T22:28:22.162Z,30.05
2022-12-16T22:31:16.012Z,28.60
2022-12-16T22:34:20.211Z,29.90
2022-12-16T22:37:05.456Z,31.45
2022-12-16T22:39:51.107Z,29.08
2022-12-16T22:42:37.179Z,29.33
2022-12-16T22:45:22.943Z,31.63
2022-12-16T22:48:08.243Z,33.67
2022-12-16T22:53:59.875Z,37.38
2022-12-16T22:56:45.278Z,33.78
2022-12-16T22:59:30.880Z,33.92
2022-12-16T23:02:15.995Z,37.38
2022-12-16T23:05:01.380Z,37.42
2022-12-16T23:07:46.792Z,35.38
2022-12-16T23:10:32.459Z,35.15
2022-12-16T23:13:17.640Z,33.33
2022-12-16T23:16:05.955Z,35.45
2022-12-16T23:18:52.094Z,35.70
2022-12-16T23:21:38.318Z,35.08
2022-12-16T23:24:24.097Z,36.55
2022-12-16T23:27:09.442Z,35.08
2022-12-16T23:29:56.786Z,34.05
2022-12-16T23:32:43.324Z,41.88
2022-12-16T23:35:28.769Z,36.20
2022-12-16T23:38:24.231Z,35.95
2022-12-16T23:41:18.815Z,36.80
2022-12-16T23:44:03.944Z,36.10
2022-12-16T23:46:49.871Z,34.83
2022-12-16T23:49:35.182Z,31.73
2022-12-16T23:52:20.447Z,34.97
2022-12-16T23:55:06.001Z,34.17
2022-12-16T23:57:51.462Z,35.55
